createdAt,value
2022-11-15T00:01:40.453Z,94946.75
2022-11-15T00:05:08.142Z,94955.34
2022-11-15T00:08:35.650Z,94948.41
2022-11-15T00:12:03.131Z,94940.97
2022-11-15T00:15:32.435Z,94938.69
2022-11-15T00:19:00.292Z,94930.78
2022-11-15T00:22:32.965Z,94934.50
2022-11-15T00:26:00.218Z,94930.69
2022-11-15T00:29:27.559Z,94922.28
2022-11-15T00:32:56.377Z,94925.53
2022-11-15T00:36:23.680Z,94920.91
2022-11-15T00:39:50.868Z,94923.16
2022-11-15T00:43:18.206Z,94926.09
2022-11-15T00:46:45.236Z,94931.91
2022-11-15T00:50:15.561Z,94926.84
2022-11-15T00:53:42.855Z,94919.78
2022-11-15T00:57:10.159Z,94908.09
2022-11-15T01:00:37.154Z,94909.06
2022-11-15T01:04:04.364Z,94922.28
2022-11-15T01:07:33.181Z,94909.22
2022-11-15T01:11:03.662Z,94914.59
2022-11-15T01:14:31.016Z,94908.13
2022-11-15T01:17:58.361Z,94906.09
2022-11-15T01:21:25.346Z,94895.66
2022-11-15T01:24:54.168Z,94891.38
2022-11-15T01:28:21.647Z,94896.63
2022-11-15T01:31:48.938Z,94885.44
2022-11-15T01:35:16.295Z,94868.69
2022-11-15T01:38:43.611Z,94864.41
2022-11-15T01:42:15.525Z,94862.47
2022-11-15T01:45:42.745Z,94857.97
2022-11-15T01:49:16.296Z,94860.16
2022-11-15T01:52:44.331Z,94855.72
2022-11-15T01:56:17.121Z,94844.69
2022-11-15T01:59:48.532Z,94840.47
2022-11-15T02:03:16.886Z,94841.44
2022-11-15T02:06:46.329Z,94841.91
2022-11-15T02:10:19.954Z,94838.66
2022-11-15T02:13:47.920Z,94833.75
2022-11-15T02:17:31.646Z,94834.19
2022-11-15T02:21:19.391Z,94831.91
2022-11-15T02:25:16.442Z,94820.81
2022-11-15T02:28:53.907Z,94815.59
2022-11-15T02:32:30.517Z,94805.69
2022-11-15T02:36:02.961Z,94797.38
2022-11-15T02:39:38.031Z,94803.97
2022-11-15T02:44:01.196Z,94796.22
2022-11-15T02:47:32.175Z,94785.56
2022-11-15T02:51:00.170Z,94783.75
2022-11-15T02:54:29.074Z,94785.72
2022-11-15T02:58:11.728Z,94782.06
2022-11-15T03:01:53.918Z,94780.78
2022-11-15T03:05:32.558Z,94775.81
2022-11-15T03:09:10.110Z,94779.16
2022-11-15T03:12:43.397Z,94782.84
2022-11-15T03:16:17.527Z,94785.22
2022-11-15T03:19:48.631Z,94785.28
2022-11-15T03:23:19.133Z,94783.19
2022-11-15T03:26:50.080Z,94789.47
2022-11-15T03:30:18.228Z,94791.13
2022-11-15T03:33:46.021Z,94783.75
2022-11-15T03:37:15.329Z,94786.25
2022-11-15T03:40:47.419Z,94785.94
2022-11-15T03:44:23.120Z,94781.31
2022-11-15T03:47:55.733Z,94782.41
2022-11-15T03:51:23.445Z,94770.75
2022-11-15T03:54:52.451Z,94769.09
2022-11-15T03:58:21.073Z,94764.38
2022-11-15T04:01:48.928Z,94762.88
2022-11-15T04:05:16.096Z,94761.38
2022-11-15T04:08:43.437Z,94757.50
2022-11-15T04:12:10.811Z,94752.38
2022-11-15T04:15:39.505Z,94752.94
2022-11-15T04:19:24.300Z,94745.06
2022-11-15T04:23:11.234Z,94743.03
2022-11-15T04:26:38.152Z,94735.16
2022-11-15T04:30:06.655Z,94729.75
2022-11-15T04:33:35.201Z,94733.94
2022-11-15T04:37:14.933Z,94721.97
2022-11-15T04:40:41.862Z,94719.78
2022-11-15T04:44:09.028Z,94708.25
2022-11-15T04:47:36.171Z,94709.16
2022-11-15T04:51:04.851Z,94708.63
2022-11-15T04:54:32.570Z,94713.16
2022-11-15T04:58:03.869Z,94711.50
2022-11-15T05:01:31.068Z,94709.38
2022-11-15T05:04:57.196Z,94716.13
2022-11-15T05:08:25.852Z,94708.88
2022-11-15T05:11:52.820Z,94709.97
2022-11-15T05:15:20.146Z,94705.41
2022-11-15T05:18:47.471Z,94710.28
2022-11-15T05:22:15.109Z,94709.63
2022-11-15T05:25:43.823Z,94700.25
2022-11-15T05:29:13.442Z,94693.34
2022-11-15T05:32:41.853Z,94699.13
2022-11-15T05:36:14.224Z,94699.25
2022-11-15T05:39:41.406Z,94700.69
2022-11-15T05:43:11.786Z,94695.88
2022-11-15T05:46:41.280Z,94690.88
2022-11-15T05:50:09.235Z,94683.53
2022-11-15T05:53:36.893Z,94674.16
2022-11-15T05:57:05.575Z,94666.91
2022-11-15T06:00:34.079Z,94665.66
2022-11-15T06:04:01.498Z,94666.47
2022-11-15T06:07:28.946Z,94674.47
2022-11-15T06:10:56.237Z,94669.75
2022-11-15T06:14:23.562Z,94686.16
2022-11-15T06:17:52.090Z,94680.84
2022-11-15T06:21:19.307Z,94671.25
2022-11-15T06:24:46.792Z,94658.97
2022-11-15T06:28:13.696Z,94658.06
2022-11-15T06:31:40.989Z,94659.94
2022-11-15T06:35:09.989Z,94668.41
2022-11-15T06:38:37.408Z,94658.00
2022-11-15T06:42:04.749Z,94667.66
2022-11-15T06:45:32.325Z,94659.66
2022-11-15T06:48:59.277Z,94668.09
2022-11-15T06:52:27.789Z,94663.53
2022-11-15T06:55:55.883Z,94661.34
2022-11-15T06:59:23.346Z,94663.13
2022-11-15T07:02:51.075Z,94666.19
2022-11-15T07:06:18.258Z,94667.53
2022-11-15T07:09:46.937Z,94662.34
2022-11-15T07:13:15.682Z,94667.25
2022-11-15T07:16:43.297Z,94664.81
2022-11-15T07:20:11.166Z,94669.81
2022-11-15T07:23:39.997Z,94670.19
2022-11-15T07:27:08.885Z,94659.78
2022-11-15T07:30:37.335Z,94660.53
2022-11-15T07:34:06.128Z,94666.06
2022-11-15T07:37:33.516Z,94668.88
2022-11-15T07:41:02.065Z,94671.00
2022-11-15T07:44:30.765Z,94672.13
2022-11-15T07:47:58.358Z,94668.72
2022-11-15T07:51:25.909Z,94666.94
2022-11-15T07:54:53.023Z,94668.88
2022-11-15T07:58:20.298Z,94672.13
2022-11-15T08:01:48.990Z,94669.75
2022-11-15T08:05:16.649Z,94664.44
2022-11-15T08:08:43.624Z,94652.69
2022-11-15T08:12:10.858Z,94642.63
2022-11-15T08:15:38.762Z,94634.78
2022-11-15T08:19:07.486Z,94635.28
2022-11-15T08:22:35.526Z,94633.09
2022-11-15T08:26:04.259Z,94629.59
2022-11-15T08:29:31.419Z,94624.84
2022-11-15T08:33:00.473Z,94605.91
2022-11-15T08:36:34.766Z,94584.28
2022-11-15T08:40:10.652Z,94574.50
2022-11-15T08:43:37.761Z,94568.09
2022-11-15T08:47:05.135Z,94577.75
2022-11-15T08:50:32.800Z,94579.88
2022-11-15T08:54:01.519Z,94574.75
2022-11-15T08:57:31.840Z,94574.31
2022-11-15T09:00:58.965Z,94575.16
2022-11-15T09:04:26.047Z,94572.91
2022-11-15T09:07:56.006Z,94571.00
2022-11-15T09:11:24.597Z,94573.88
2022-11-15T09:14:51.565Z,94577.19
2022-11-15T09:18:20.218Z,94580.47
2022-11-15T09:21:49.441Z,94586.50
2022-11-15T09:25:16.563Z,94576.41
2022-11-15T09:28:45.174Z,94579.28
2022-11-15T09:32:12.691Z,94576.34
2022-11-15T09:35:40.188Z,94576.19
2022-11-15T09:39:07.398Z,94562.75
2022-11-15T09:42:57.963Z,94556.75
2022-11-15T09:46:39.960Z,94551.72
2022-11-15T09:50:12.229Z,94547.25
2022-11-15T09:54:23.856Z,94537.91
2022-11-15T09:57:16.360Z,94528.72
2022-11-15T10:00:49.867Z,94527.72
2022-11-15T10:04:00.610Z,94518.50
2022-11-15T10:07:20.691Z,94507.47
2022-11-15T10:10:38.734Z,94508.28
2022-11-15T10:13:50.634Z,94502.56
2022-11-15T10:17:46.904Z,94500.06
2022-11-15T10:21:02.122Z,94499.88
2022-11-15T10:24:14.743Z,94492.69
2022-11-15T10:27:25.649Z,94488.38
2022-11-15T10:30:38.339Z,94480.78
2022-11-15T10:33:46.567Z,94471.97
2022-11-15T10:37:02.705Z,94459.28
2022-11-15T10:40:21.769Z,94463.75
2022-11-15T10:43:29.980Z,94458.78
2022-11-15T10:46:48.621Z,94453.78
2022-11-15T10:50:09.479Z,94449.03
2022-11-15T10:53:26.369Z,94438.88
2022-11-15T10:56:34.619Z,94445.47
2022-11-15T10:59:49.346Z,94438.94
2022-11-15T11:03:04.182Z,94431.09
2022-11-15T11:06:16.400Z,94423.72
2022-11-15T11:09:34.376Z,94417.94
2022-11-15T11:12:42.683Z,94412.19
2022-11-15T11:15:59.893Z,94409.25
2022-11-15T11:19:29.927Z,94407.06
2022-11-15T11:22:57.738Z,94388.63
2022-11-15T11:26:37.212Z,94392.22
2022-11-15T11:30:04.645Z,94393.34
2022-11-15T11:33:22.299Z,94387.19
2022-11-15T11:36:46.255Z,94383.13
2022-11-15T11:40:11.059Z,94390.03
2022-11-15T11:43:39.202Z,94388.19
2022-11-15T11:46:57.185Z,94379.38
2022-11-15T11:50:18.221Z,94360.63
2022-11-15T11:53:33.357Z,94354.41
2022-11-15T11:56:45.951Z,94355.91
2022-11-15T12:00:04.382Z,94345.25
2022-11-15T12:03:31.342Z,94352.81
2022-11-15T12:06:47.709Z,94349.56
2022-11-15T12:10:03.590Z,94337.84
2022-11-15T12:13:18.793Z,94344.38
2022-11-15T12:16:31.946Z,94339.28
2022-11-15T12:19:41.405Z,94336.00
2022-11-15T12:22:58.941Z,94335.78
2022-11-15T12:26:13.548Z,94331.06
2022-11-15T12:29:29.989Z,94315.06
2022-11-15T12:32:51.610Z,94317.63
2022-11-15T12:36:04.096Z,94310.25
2022-11-15T12:39:14.130Z,94313.75
2022-11-15T12:42:43.816Z,94315.06
2022-11-15T12:45:52.108Z,94315.38
2022-11-15T12:49:03.843Z,94314.25
2022-11-15T12:52:12.455Z,94315.16
2022-11-15T12:55:35.171Z,94315.97
2022-11-15T12:58:47.378Z,94304.69
2022-11-15T13:02:02.493Z,94302.94
2022-11-15T13:06:10.736Z,94304.13
2022-11-15T13:09:56.378Z,94295.22
2022-11-15T13:13:09.404Z,94290.38
2022-11-15T13:16:22.925Z,94288.34
2022-11-15T13:19:31.579Z,94289.16
2022-11-15T13:22:53.261Z,94293.69
2022-11-15T13:26:17.463Z,94304.09
2022-11-15T13:29:25.904Z,94293.53
2022-11-15T13:32:34.468Z,94289.88
2022-11-15T13:35:47.286Z,94281.28
2022-11-15T13:39:06.914Z,94286.25
2022-11-15T13:42:18.516Z,94278.94
2022-11-15T13:45:28.303Z,94284.13
2022-11-15T13:48:37.098Z,94280.50
2022-11-15T13:51:51.423Z,94271.84
2022-11-15T13:55:06.981Z,94277.03
2022-11-15T13:58:17.879Z,94275.16
2022-11-15T14:01:34.052Z,94262.06
2022-11-15T14:04:51.635Z,94259.34
2022-11-15T14:08:03.628Z,94260.25
2022-11-15T14:11:19.032Z,94255.47
2022-11-15T14:14:29.400Z,94269.53
2022-11-15T14:17:45.729Z,94269.31
2022-11-15T14:21:09.792Z,94270.28
2022-11-15T14:24:19.903Z,94267.72
2022-11-15T14:27:31.216Z,94276.22
2022-11-15T14:30:41.505Z,94273.09
2022-11-15T14:33:50.402Z,94283.19
2022-11-15T14:36:58.636Z,94272.06
2022-11-15T14:40:10.595Z,94267.78
2022-11-15T14:43:20.463Z,94278.44
2022-11-15T14:46:28.640Z,94279.44
2022-11-15T14:49:36.892Z,94278.94
2022-11-15T14:52:45.719Z,94278.19
2022-11-15T14:55:54.035Z,94276.84
2022-11-15T14:59:03.743Z,94276.16
2022-11-15T15:02:20.040Z,94276.63
2022-11-15T15:05:34.239Z,94277.97
2022-11-15T15:08:42.782Z,94267.53
2022-11-15T15:11:50.997Z,94270.97
2022-11-15T15:15:00.566Z,94273.34
2022-11-15T15:18:09.617Z,94274.66
2022-11-15T15:21:24.477Z,94266.94
2022-11-15T15:24:32.738Z,94275.16
2022-11-15T15:27:40.997Z,94270.69
2022-11-15T15:30:51.477Z,94271.97
2022-11-15T15:33:59.869Z,94274.03
2022-11-15T15:37:27.378Z,94273.22
2022-11-15T15:40:35.955Z,94255.25
2022-11-15T15:43:44.890Z,94264.00
2022-11-15T15:46:54.827Z,94276.50
2022-11-15T15:50:03.300Z,94273.16
2022-11-15T15:53:13.676Z,94270.47
2022-11-15T15:56:21.958Z,94264.94
2022-11-15T15:59:30.219Z,94267.75
2022-11-15T16:02:40.767Z,94271.56
2022-11-15T16:05:49.206Z,94270.50
2022-11-15T16:09:13.951Z,94273.69
2022-11-15T16:12:22.888Z,94262.63
2022-11-15T16:15:34.201Z,94259.78
2022-11-15T16:18:44.329Z,94277.00
2022-11-15T16:21:53.065Z,94261.91
2022-11-15T16:25:01.306Z,94262.41
2022-11-15T16:28:19.913Z,94253.63
2022-11-15T16:31:28.331Z,94254.41
2022-11-15T16:34:41.858Z,94252.34
2022-11-15T16:37:52.073Z,94240.31
2022-11-15T16:41:01.486Z,94243.38
2022-11-15T16:44:09.700Z,94246.00
2022-11-15T16:47:20.390Z,94245.78
2022-11-15T16:50:35.238Z,94235.41
2022-11-15T16:53:44.304Z,94239.25
2022-11-15T16:56:53.728Z,94236.00
2022-11-15T17:00:01.942Z,94229.06
2022-11-15T17:03:10.286Z,94240.06
2022-11-15T17:06:20.492Z,94227.03
2022-11-15T17:09:28.785Z,94224.56
2022-11-15T17:12:37.774Z,94224.56
2022-11-15T17:15:46.026Z,94219.28
2022-11-15T17:18:54.554Z,94214.41
2022-11-15T17:22:04.274Z,94211.91
2022-11-15T17:25:12.915Z,94212.69
2022-11-15T17:28:21.251Z,94212.66
2022-11-15T17:31:33.696Z,94208.16
2022-11-15T17:34:42.230Z,94210.16
2022-11-15T17:37:52.734Z,94215.22
2022-11-15T17:41:05.616Z,94207.69
2022-11-15T17:44:14.625Z,94194.72
2022-11-15T17:47:24.388Z,94197.34
2022-11-15T17:50:32.726Z,94191.81
2022-11-15T17:53:45.203Z,94198.03
2022-11-15T17:56:54.220Z,94193.06
2022-11-15T18:00:03.436Z,94185.09
2022-11-15T18:03:12.822Z,94195.94
2022-11-15T18:06:23.476Z,94182.72
2022-11-15T18:09:33.266Z,94184.00
2022-11-15T18:12:41.841Z,94186.53
2022-11-15T18:15:56.216Z,94177.56
2022-11-15T18:19:08.928Z,94172.91
2022-11-15T18:22:18.453Z,94166.22
2022-11-15T18:25:28.822Z,94163.97
2022-11-15T18:28:41.927Z,94163.56
2022-11-15T18:31:50.605Z,94167.84
2022-11-15T18:34:59.428Z,94166.28
2022-11-15T18:38:07.587Z,94166.38
2022-11-15T18:41:20.858Z,94159.88
2022-11-15T18:44:30.118Z,94158.81
2022-11-15T18:47:38.665Z,94154.59
2022-11-15T18:50:50.440Z,94151.34
2022-11-15T18:54:03.794Z,94148.69
2022-11-15T18:57:14.242Z,94130.25
2022-11-15T19:00:22.855Z,94142.00
2022-11-15T19:03:34.512Z,94132.47
2022-11-15T19:06:46.377Z,94123.97
2022-11-15T19:09:54.816Z,94119.31
2022-11-15T19:13:05.154Z,94131.09
2022-11-15T19:16:16.736Z,94129.84
2022-11-15T19:19:28.323Z,94114.38
2022-11-15T19:22:36.565Z,94113.72
2022-11-15T19:25:44.889Z,94104.53
2022-11-15T19:28:57.970Z,94109.75
2022-11-15T19:32:07.835Z,94109.31
2022-11-15T19:35:16.883Z,94102.97
2022-11-15T19:38:25.209Z,94097.13
2022-11-15T19:41:34.532Z,94090.97
2022-11-15T19:44:44.663Z,94094.75
2022-11-15T19:47:53.061Z,94080.41
2022-11-15T19:51:04.906Z,94085.63
2022-11-15T19:54:16.868Z,94087.25
2022-11-15T19:57:27.147Z,94086.44
2022-11-15T20:00:37.435Z,94092.34
2022-11-15T20:03:47.025Z,94091.38
2022-11-15T20:06:55.646Z,94089.53
2022-11-15T20:10:05.025Z,94088.34
2022-11-15T20:13:14.803Z,94087.47
2022-11-15T20:16:25.360Z,94082.50
2022-11-15T20:19:36.222Z,94079.75
2022-11-15T20:22:44.733Z,94080.56
2022-11-15T20:25:53.967Z,94073.31
2022-11-15T20:29:03.536Z,94062.75
2022-11-15T20:32:14.384Z,94064.03
2022-11-15T20:35:22.854Z,94054.69
2022-11-15T20:38:31.874Z,94049.81
2022-11-15T20:41:42.003Z,94039.91
2022-11-15T20:44:50.242Z,94039.94
2022-11-15T20:48:00.678Z,94034.38
2022-11-15T20:51:12.854Z,94032.84
2022-11-15T20:54:21.215Z,94035.50
2022-11-15T20:57:30.050Z,94029.97
2022-11-15T21:00:39.051Z,94029.03
2022-11-15T21:03:48.937Z,94018.25
2022-11-15T21:06:58.379Z,94016.03
2022-11-15T21:10:24.860Z,94005.88
2022-11-15T21:13:33.354Z,93999.16
2022-11-15T21:16:41.790Z,93997.34
2022-11-15T21:19:51.444Z,93987.22
2022-11-15T21:22:59.875Z,93977.69
2022-11-15T21:26:08.078Z,93980.94
2022-11-15T21:29:17.093Z,93977.28
2022-11-15T21:32:28.913Z,93971.81
2022-11-15T21:35:38.550Z,93967.72
2022-11-15T21:38:46.898Z,93965.91
2022-11-15T21:41:56.344Z,93963.31
2022-11-15T21:45:05.820Z,93951.06
2022-11-15T21:48:14.199Z,93952.88
2022-11-15T21:51:25.328Z,93949.03
2022-11-15T21:54:33.667Z,93946.38
2022-11-15T21:57:42.053Z,93931.91
2022-11-15T22:01:09.072Z,93927.84
2022-11-15T22:04:17.555Z,93926.19
2022-11-15T22:07:27.259Z,93909.31
2022-11-15T22:10:35.516Z,93920.31
2022-11-15T22:13:44.295Z,93912.97
2022-11-15T22:16:52.539Z,93907.28
2022-11-15T22:20:11.594Z,93904.81
2022-11-15T22:23:34.210Z,93898.06
2022-11-15T22:26:42.445Z,93890.03
2022-11-15T22:29:50.643Z,93878.88
2022-11-15T22:32:58.924Z,93881.28
2022-11-15T22:36:09.096Z,93877.19
2022-11-15T22:39:18.825Z,93872.88
2022-11-15T22:42:27.126Z,93872.47
2022-11-15T22:45:35.889Z,93868.75
2022-11-15T22:48:47.318Z,93865.78
2022-11-15T22:51:55.608Z,93875.56
2022-11-15T22:55:06.482Z,93865.81
2022-11-15T22:58:14.846Z,93875.22
2022-11-15T23:01:23.557Z,93875.84
2022-11-15T23:04:31.885Z,93883.22
2022-11-15T23:07:40.093Z,93887.41
2022-11-15T23:11:07.659Z,93892.94
2022-11-15T23:14:16.130Z,93892.91
2022-11-15T23:17:24.619Z,93879.22
2022-11-15T23:20:43.005Z,93870.97
2022-11-15T23:23:51.877Z,93853.69
2022-11-15T23:27:04.523Z,93850.44
2022-11-15T23:30:33.332Z,93851.50
2022-11-15T23:33:59.543Z,93845.00
2022-11-15T23:37:10.323Z,93849.94
2022-11-15T23:40:19.253Z,93847.78
2022-11-15T23:43:29.130Z,93848.06
2022-11-15T23:46:37.491Z,93838.28
2022-11-15T23:49:45.759Z,93830.75
2022-11-15T23:52:54.005Z,93827.75
2022-11-15T23:56:06.067Z,93826.28
2022-11-15T23:59:16.051Z,93814.06
